Time;durP1;ratioP1;P1;durP2;ratioP2;P2;SDS_P1;SDS_P2;PMS_P1;PMS_P2;Temp;Humidity;BMP_temperature;BMP_pressure;BME280_temperature;BME280_humidity;BME280_pressure;Samples;Min_cycle;Max_cycle;Signal;HPM_P1;HPM_P2
2021/12/29 00:00:03;;;;;;;;;;;8.30;99.90;;;;;;5013541;28;20359;-73
2021/12/29 00:02:29;;;;;;;;;;;8.40;99.90;;;;;;5013228;28;19925;-74
2021/12/29 00:04:54;;;;;;;;;;;8.30;99.90;;;;;;5013038;28;19928;-73
2021/12/29 00:07:21;;;;;;;;;;;8.30;99.90;;;;;;5013193;28;20267;-73
2021/12/29 00:09:46;;;;;;;;;;;8.30;99.90;;;;;;5013046;28;19913;-74
2021/12/29 00:12:14;;;;;;;;;;;8.30;99.90;;;;;;5012459;28;20016;-75
2021/12/29 00:14:40;;;;;;;;;;;8.30;99.90;;;;;;5012789;28;20000;-75
2021/12/29 00:17:05;;;;;;;;;;;8.30;99.90;;;;;;5012802;28;19995;-74
2021/12/29 00:19:31;;;;;;;;;;;8.20;99.90;;;;;;5012997;28;19925;-73
2021/12/29 00:21:56;;;;;;;;;;;8.30;99.90;;;;;;5013004;28;19960;-73
2021/12/29 00:24:22;;;;;;;;;;;8.30;99.90;;;;;;5012384;28;19910;-73
2021/12/29 00:26:47;;;;;;;;;;;8.30;99.90;;;;;;5012562;28;20260;-73
2021/12/29 00:29:14;;;;;;;;;;;8.30;99.90;;;;;;5012669;28;19969;-73
2021/12/29 00:31:39;;;;;;;;;;;8.30;99.90;;;;;;5012783;28;19937;-74
2021/12/29 00:34:05;;;;;;;;;;;8.30;99.90;;;;;;5012680;28;19929;-73
2021/12/29 00:36:30;;;;;;;;;;;8.30;99.90;;;;;;5012396;28;19916;-74
2021/12/29 00:38:56;;;;;;;;;;;8.30;99.90;;;;;;5012782;28;19959;-74
2021/12/29 00:41:21;;;;;;;;;;;8.30;99.90;;;;;;5011735;28;19913;-74
2021/12/29 00:43:47;;;;;;;;;;;8.30;99.90;;;;;;5011424;28;20268;-73
2021/12/29 00:46:15;;;;;;;;;;;8.20;99.90;;;;;;5012590;28;20344;-73
2021/12/29 00:48:43;;;;;;;;;;;8.20;99.90;;;;;;5012350;28;20004;-72
2021/12/29 00:51:09;;;;;;;;;;;8.20;99.90;;;;;;5012766;28;19940;-73
2021/12/29 00:53:35;;;;;;;;;;;8.30;99.90;;;;;;5012311;28;20282;-73
2021/12/29 00:56:01;;;;;;;;;;;8.30;99.90;;;;;;5012290;28;19938;-73
2021/12/29 00:58:26;;;;;;;;;;;8.20;99.90;;;;;;5011205;28;19914;-72
2021/12/29 01:00:52;;;;;;;;;;;8.30;99.90;;;;;;5012779;28;19979;-73
2021/12/29 01:03:18;;;;;;;;;;;8.40;99.90;;;;;;5012151;28;19909;-73
2021/12/29 01:05:43;;;;;;;;;;;8.40;99.90;;;;;;5012763;28;19941;-74
2021/12/29 01:08:10;;;;;;;;;;;8.30;99.90;;;;;;5011986;28;19914;-74
2021/12/29 01:10:37;;;;;;;;;;;8.40;99.90;;;;;;5011625;28;20299;-73
2021/12/29 01:13:03;;;;;;;;;;;8.30;99.90;;;;;;5012348;28;19921;-74
2021/12/29 01:15:33;;;;;;;;;;;8.40;99.90;;;;;;5011813;28;19914;-73
2021/12/29 01:18:03;;;;;;;;;;;8.40;99.90;;;;;;5012528;28;19910;-73
2021/12/29 01:20:29;;;;;;;;;;;8.40;99.90;;;;;;5011169;28;19960;-73
2021/12/29 01:22:56;;;;;;;;;;;8.40;99.90;;;;;;5011996;28;19918;-72
2021/12/29 01:25:22;;;;;;;;;;;8.40;99.90;;;;;;5012435;28;19922;-73
2021/12/29 01:27:48;;;;;;;;;;;8.50;99.90;;;;;;5015960;28;19932;-73
2021/12/29 01:30:16;;;;;;;;;;;8.40;99.90;;;;;;5016711;28;19913;-74
2021/12/29 01:32:42;;;;;;;;;;;8.50;99.90;;;;;;4996441;28;20225;-74
2021/12/29 01:35:08;;;;;;;;;;;8.50;99.90;;;;;;5006691;28;19914;-73
2021/12/29 01:37:34;;;;;;;;;;;8.50;99.90;;;;;;5006713;28;19914;-73
2021/12/29 01:39:59;;;;;;;;;;;8.50;99.90;;;;;;5014612;28;19932;-74
2021/12/29 01:42:25;;;;;;;;;;;8.50;99.90;;;;;;5015781;28;19914;-74
2021/12/29 01:44:50;;;;;;;;;;;8.50;99.90;;;;;;5016214;28;20253;-75
2021/12/29 01:47:26;;;;;;;;;;;8.50;99.90;;;;;;5015738;28;19914;-73
2021/12/29 01:49:52;;;;;;;;;;;8.60;99.90;;;;;;5015733;28;19967;-74
2021/12/29 01:52:22;;;;;;;;;;;8.50;99.90;;;;;;5015721;28;20000;-72
2021/12/29 01:54:47;;;;;;;;;;;8.40;99.90;;;;;;5015763;28;19914;-74
2021/12/29 01:57:13;;;;;;;;;;;8.50;99.90;;;;;;5015784;28;20286;-74
2021/12/29 01:59:39;;;;;;;;;;;8.50;99.90;;;;;;5015429;28;19989;-75
2021/12/29 02:02:05;;;;;;;;;;;8.50;99.90;;;;;;5014459;28;19926;-74
2021/12/29 02:04:30;;;;;;;;;;;8.50;99.90;;;;;;5015301;28;19976;-74
2021/12/29 02:06:56;;;;;;;;;;;8.50;99.90;;;;;;5015481;28;20330;-74
2021/12/29 02:09:21;;;;;;;;;;;8.40;99.90;;;;;;5015261;28;19945;-73
2021/12/29 02:11:47;;;;;;;;;;;8.50;99.90;;;;;;5015711;28;20378;-74
2021/12/29 02:14:13;;;;;;;;;;;8.50;99.90;;;;;;5015215;28;20266;-74
2021/12/29 02:16:38;;;;;;;;;;;8.40;99.90;;;;;;5014956;28;19917;-74
2021/12/29 02:19:06;;;;;;;;;;;8.30;99.90;;;;;;5015125;28;19913;-74
2021/12/29 02:21:32;;;;;;;;;;;8.30;99.90;;;;;;5015012;28;19941;-73
2021/12/29 02:26:30;;;;;;;;;;;8.30;99.90;;;;;;5015119;28;20302;-74
2021/12/29 02:28:56;;;;;;;;;;;8.30;99.90;;;;;;5014595;28;19913;-72
2021/12/29 02:31:22;;;;;;;;;;;8.20;99.90;;;;;;5013434;28;19932;-72
2021/12/29 02:33:48;;;;;;;;;;;8.20;99.90;;;;;;5015015;28;19957;-73
2021/12/29 02:36:16;;;;;;;;;;;8.40;99.90;;;;;;5026328;28;19948;-74
2021/12/29 02:38:47;;;;;;;;;;;8.30;99.90;;;;;;5034655;28;19914;-74
2021/12/29 02:41:12;;;;;;;;;;;8.30;99.90;;;;;;5034352;28;19967;-73
2021/12/29 02:43:39;;;;;;;;;;;8.30;99.90;;;;;;5034454;28;20338;-74
2021/12/29 02:46:11;;;;;;;;;;;8.30;99.90;;;;;;5034292;28;19917;-73
2021/12/29 02:48:39;;;;;;;;;;;8.30;99.90;;;;;;5033343;28;19921;-74
2021/12/29 02:51:07;;;;;;;;;;;8.30;99.90;;;;;;5034724;28;19923;-74
2021/12/29 02:53:34;;;;;;;;;;;8.40;99.90;;;;;;5034350;28;20243;-74
2021/12/29 02:55:59;;;;;;;;;;;8.40;99.90;;;;;;5033331;28;19921;-73
2021/12/29 02:58:25;;;;;;;;;;;8.40;99.90;;;;;;5034331;28;19924;-73
2021/12/29 03:00:51;;;;;;;;;;;8.40;99.90;;;;;;5033647;28;19929;-74
2021/12/29 03:03:21;;;;;;;;;;;8.40;99.90;;;;;;5034055;28;20069;-73
2021/12/29 03:05:47;;;;;;;;;;;8.40;99.90;;;;;;5034686;28;19987;-73
2021/12/29 03:08:13;;;;;;;;;;;8.40;99.90;;;;;;5034100;28;20397;-75
2021/12/29 03:10:39;;;;;;;;;;;8.40;99.90;;;;;;5034020;28;20003;-73
2021/12/29 03:13:05;;;;;;;;;;;8.40;99.90;;;;;;5033019;28;19974;-73
2021/12/29 03:15:30;;;;;;;;;;;8.40;99.90;;;;;;5032640;28;20219;-72
2021/12/29 03:17:56;;;;;;;;;;;8.40;99.90;;;;;;5034053;28;19922;-73
2021/12/29 03:20:21;;;;;;;;;;;8.40;99.90;;;;;;5033812;28;19917;-74
2021/12/29 03:22:47;;;;;;;;;;;8.40;99.90;;;;;;5033835;28;20339;-74
2021/12/29 03:25:12;;;;;;;;;;;8.40;99.90;;;;;;5033602;28;19917;-73
2021/12/29 03:27:38;;;;;;;;;;;8.40;99.90;;;;;;5033614;28;20251;-73
2021/12/29 03:30:04;;;;;;;;;;;8.40;99.90;;;;;;5033935;28;19917;-74
2021/12/29 03:32:49;;;;;;;;;;;8.40;99.90;;;;;;5033150;28;19986;-74
2021/12/29 03:35:14;;;;;;;;;;;8.40;99.90;;;;;;5032400;28;19918;-74
2021/12/29 03:37:40;;;;;;;;;;;8.50;99.90;;;;;;5033358;28;19917;-73
2021/12/29 03:40:06;;;;;;;;;;;8.50;99.90;;;;;;5033383;28;20283;-72
2021/12/29 03:42:32;;;;;;;;;;;8.50;99.90;;;;;;5033224;28;20000;-73
2021/12/29 03:44:57;;;;;;;;;;;8.50;99.90;;;;;;5032577;28;19909;-73
2021/12/29 03:47:23;;;;;;;;;;;8.50;99.90;;;;;;5033315;28;19921;-73
2021/12/29 03:49:48;;;;;;;;;;;8.50;99.90;;;;;;5032535;28;19917;-73
2021/12/29 03:52:14;;;;;;;;;;;8.50;99.90;;;;;;5031976;28;19917;-73
2021/12/29 03:54:39;;;;;;;;;;;8.40;99.90;;;;;;5033155;28;19978;-74
2021/12/29 03:57:05;;;;;;;;;;;8.40;99.90;;;;;;5033589;28;20018;-73
2021/12/29 03:59:30;;;;;;;;;;;8.50;99.90;;;;;;5033056;28;19924;-73
2021/12/29 04:01:56;;;;;;;;;;;8.50;99.90;;;;;;5033254;28;20343;-73
2021/12/29 04:04:22;;;;;;;;;;;8.50;99.90;;;;;;5031697;28;20490;-73
2021/12/29 04:06:48;;;;;;;;;;;8.50;99.90;;;;;;5031925;28;19920;-73
2021/12/29 04:09:14;;;;;;;;;;;8.50;99.90;;;;;;5032984;28;19925;-73
2021/12/29 04:11:39;;;;;;;;;;;8.50;99.90;;;;;;5032664;28;19921;-73
2021/12/29 04:14:05;;;;;;;;;;;8.50;99.90;;;;;;5032812;28;20464;-73
2021/12/29 04:16:30;;;;;;;;;;;8.50;99.90;;;;;;5032471;28;20351;-73
2021/12/29 04:19:06;;;;;;;;;;;8.50;99.90;;;;;;5031713;28;20291;-73
2021/12/29 04:21:36;;;;;;;;;;;8.60;99.90;;;;;;5032738;28;20343;-73
2021/12/29 04:24:02;;;;;;;;;;;8.60;99.90;;;;;;5032916;28;20297;-73
2021/12/29 04:26:27;;;;;;;;;;;8.60;99.90;;;;;;5031555;28;19971;-73
2021/12/29 04:28:53;;;;;;;;;;;8.60;99.90;;;;;;5032467;28;20318;-73
2021/12/29 04:31:18;;;;;;;;;;;8.50;99.90;;;;;;5031200;28;19935;-73
2021/12/29 04:33:44;;;;;;;;;;;8.50;99.90;;;;;;5030960;28;19917;-73
2021/12/29 04:36:09;;;;;;;;;;;8.60;99.90;;;;;;5032649;28;19924;-73
2021/12/29 04:38:35;;;;;;;;;;;8.60;99.90;;;;;;5032347;28;20366;-75
2021/12/29 04:41:00;;;;;;;;;;;8.60;99.90;;;;;;5032109;28;19920;-73
2021/12/29 04:43:26;;;;;;;;;;;8.60;99.90;;;;;;5031225;28;19924;-73
2021/12/29 04:45:52;;;;;;;;;;;8.60;99.90;;;;;;5032454;28;19917;-74
2021/12/29 04:48:17;;;;;;;;;;;8.60;99.90;;;;;;5031026;28;20006;-74
2021/12/29 04:51:05;;;;;;;;;;;8.60;99.90;;;;;;5032603;28;20120;-73
2021/12/29 04:53:31;;;;;;;;;;;8.70;99.90;;;;;;5031212;28;19916;-74
2021/12/29 04:55:57;;;;;;;;;;;8.70;99.90;;;;;;5032179;28;19913;-74
2021/12/29 04:58:23;;;;;;;;;;;8.70;99.90;;;;;;5032143;28;20452;-74
2021/12/29 05:00:49;;;;;;;;;;;8.70;99.90;;;;;;5031301;28;19917;-74
2021/12/29 05:03:14;;;;;;;;;;;8.60;99.90;;;;;;5032196;28;20010;-74
2021/12/29 05:05:52;;;;;;;;;;;8.60;99.90;;;;;;5031978;28;19952;-74
2021/12/29 05:08:29;;;;;;;;;;;8.60;99.90;;;;;;5031169;28;19920;-74
2021/12/29 05:11:04;;;;;;;;;;;8.60;99.90;;;;;;5031864;28;19963;-74
2021/12/29 05:13:32;;;;;;;;;;;8.50;99.90;;;;;;5030682;28;20255;-73
2021/12/29 05:15:58;;;;;;;;;;;8.60;99.90;;;;;;5031804;28;19940;-73
2021/12/29 05:18:24;;;;;;;;;;;8.60;99.90;;;;;;5031787;28;19909;-73
2021/12/29 05:20:50;;;;;;;;;;;8.60;99.90;;;;;;5032215;28;19916;-75
2021/12/29 05:23:15;;;;;;;;;;;8.60;99.90;;;;;;5030923;28;19914;-74
2021/12/29 05:25:41;;;;;;;;;;;8.60;99.90;;;;;;5030791;28;19913;-74
2021/12/29 05:28:07;;;;;;;;;;;8.60;99.90;;;;;;5032063;28;19925;-74
2021/12/29 05:30:33;;;;;;;;;;;8.60;99.90;;;;;;5031957;28;20330;-74
2021/12/29 05:32:59;;;;;;;;;;;8.70;99.90;;;;;;5032012;28;19933;-74
2021/12/29 05:35:24;;;;;;;;;;;8.70;99.90;;;;;;5031971;28;20018;-72
2021/12/29 05:37:50;;;;;;;;;;;8.70;99.90;;;;;;5031703;28;20277;-74
2021/12/29 05:40:15;;;;;;;;;;;8.70;99.90;;;;;;5031615;28;19917;-73
2021/12/29 05:42:42;;;;;;;;;;;8.70;99.90;;;;;;5030875;28;19913;-74
2021/12/29 05:45:10;;;;;;;;;;;8.70;99.90;;;;;;5032161;28;19919;-75
2021/12/29 05:47:35;;;;;;;;;;;8.70;99.90;;;;;;5031927;28;19917;-74
2021/12/29 05:50:03;;;;;;;;;;;8.70;99.90;;;;;;5030578;28;20504;-75
2021/12/29 05:52:28;;;;;;;;;;;8.80;99.90;;;;;;5031716;28;19936;-74
2021/12/29 05:54:54;;;;;;;;;;;8.70;99.90;;;;;;5031648;28;20303;-73
2021/12/29 05:57:19;;;;;;;;;;;8.80;99.90;;;;;;5030942;28;19912;-75
2021/12/29 05:59:45;;;;;;;;;;;8.70;99.90;;;;;;5031728;28;19928;-75
2021/12/29 06:02:10;;;;;;;;;;;8.70;99.90;;;;;;5030395;28;20050;-74
2021/12/29 06:04:36;;;;;;;;;;;8.70;99.90;;;;;;5031274;28;20383;-75
2021/12/29 06:07:01;;;;;;;;;;;8.60;99.90;;;;;;5031549;28;19919;-74
2021/12/29 06:09:27;;;;;;;;;;;8.70;99.90;;;;;;5030559;28;19909;-74
2021/12/29 06:11:52;;;;;;;;;;;8.70;99.90;;;;;;5033171;28;20235;-75
2021/12/29 06:14:18;;;;;;;;;;;8.70;99.90;;;;;;5034871;28;20009;-74
2021/12/29 06:16:44;;;;;;;;;;;8.70;99.90;;;;;;5035065;28;19921;-75
2021/12/29 06:19:10;;;;;;;;;;;8.70;99.90;;;;;;5034681;28;19917;-74
2021/12/29 06:21:38;;;;;;;;;;;8.70;99.90;;;;;;5034978;28;20588;-74
2021/12/29 06:24:04;;;;;;;;;;;8.70;99.90;;;;;;5034094;28;19940;-74
2021/12/29 06:26:30;;;;;;;;;;;8.70;99.90;;;;;;5035095;28;19928;-74
2021/12/29 06:28:56;;;;;;;;;;;8.70;99.90;;;;;;5034664;28;19913;-73
2021/12/29 06:31:23;;;;;;;;;;;8.70;99.90;;;;;;5033701;28;19925;-73
2021/12/29 06:33:48;;;;;;;;;;;8.70;99.90;;;;;;5034677;28;19913;-73
2021/12/29 06:36:14;;;;;;;;;;;8.70;99.90;;;;;;5035141;28;19986;-73
2021/12/29 06:38:39;;;;;;;;;;;8.70;99.90;;;;;;5034440;28;19917;-73
2021/12/29 06:41:05;;;;;;;;;;;8.70;99.90;;;;;;5034431;28;19928;-76
2021/12/29 06:43:30;;;;;;;;;;;8.70;99.90;;;;;;5034299;28;19913;-74
2021/12/29 06:45:56;;;;;;;;;;;8.70;99.90;;;;;;5034448;28;19955;-74
2021/12/29 06:48:22;;;;;;;;;;;8.70;99.90;;;;;;5034444;28;19910;-74
2021/12/29 06:50:48;;;;;;;;;;;8.60;99.90;;;;;;5034488;28;19905;-74
2021/12/29 06:53:13;;;;;;;;;;;8.60;99.90;;;;;;5033237;28;20051;-74
2021/12/29 06:55:43;;;;;;;;;;;8.70;99.90;;;;;;5034153;28;19929;-74
2021/12/29 06:58:12;;;;;;;;;;;8.60;99.90;;;;;;5033222;28;20362;-74
2021/12/29 07:00:37;;;;;;;;;;;8.60;99.90;;;;;;5034006;28;20254;-74
2021/12/29 07:03:04;;;;;;;;;;;8.60;99.90;;;;;;5033191;28;19909;-73
2021/12/29 07:05:29;;;;;;;;;;;8.60;99.90;;;;;;5032930;28;20267;-73
2021/12/29 07:07:56;;;;;;;;;;;8.60;99.90;;;;;;5034251;28;20054;-74
2021/12/29 07:10:21;;;;;;;;;;;8.70;99.90;;;;;;5033762;28;19915;-75
2021/12/29 07:12:47;;;;;;;;;;;8.70;99.90;;;;;;5033901;28;19996;-74
2021/12/29 07:15:13;;;;;;;;;;;8.70;99.90;;;;;;5032936;28;19909;-74
2021/12/29 07:17:38;;;;;;;;;;;8.70;99.90;;;;;;5034057;28;19923;-74
2021/12/29 07:20:04;;;;;;;;;;;8.60;99.90;;;;;;5033777;28;19917;-74
2021/12/29 07:22:30;;;;;;;;;;;8.60;99.90;;;;;;5032327;28;20299;-75
2021/12/29 07:24:55;;;;;;;;;;;8.70;99.90;;;;;;5033381;28;19999;-74
2021/12/29 07:27:21;;;;;;;;;;;8.70;99.90;;;;;;5033988;28;19909;-74
2021/12/29 07:29:46;;;;;;;;;;;8.70;99.90;;;;;;5034355;28;19910;-74
2021/12/29 07:32:13;;;;;;;;;;;8.70;99.90;;;;;;5033488;28;19936;-75
2021/12/29 07:34:38;;;;;;;;;;;8.70;99.90;;;;;;5033391;28;19944;-75
2021/12/29 07:37:04;;;;;;;;;;;8.80;99.90;;;;;;5033579;28;19967;-74
2021/12/29 07:39:29;;;;;;;;;;;8.70;99.90;;;;;;5033384;28;19961;-75
2021/12/29 07:41:55;;;;;;;;;;;8.80;99.90;;;;;;5033702;28;19913;-74
2021/12/29 07:44:21;;;;;;;;;;;8.80;99.90;;;;;;5033308;28;19920;-73
2021/12/29 07:46:49;;;;;;;;;;;8.80;99.90;;;;;;5033464;28;19913;-75
2021/12/29 07:49:15;;;;;;;;;;;8.80;99.90;;;;;;5032051;28;20350;-75
2021/12/29 07:51:41;;;;;;;;;;;8.80;99.90;;;;;;5033139;28;19971;-74
2021/12/29 07:54:07;;;;;;;;;;;8.90;99.90;;;;;;5033255;28;19920;-74
2021/12/29 07:56:33;;;;;;;;;;;8.80;99.90;;;;;;5033183;28;19913;-74
2021/12/29 07:58:58;;;;;;;;;;;8.80;99.90;;;;;;5033077;28;19916;-74
2021/12/29 08:01:24;;;;;;;;;;;8.80;99.90;;;;;;5031723;28;19927;-74
2021/12/29 08:03:50;;;;;;;;;;;8.80;99.90;;;;;;5031793;28;19921;-75
2021/12/29 08:06:16;;;;;;;;;;;8.80;99.90;;;;;;5032071;28;20059;-74
2021/12/29 08:08:41;;;;;;;;;;;8.90;99.90;;;;;;5031581;28;20259;-74
2021/12/29 08:11:07;;;;;;;;;;;8.90;99.90;;;;;;5031911;28;20105;-74
2021/12/29 08:13:33;;;;;;;;;;;8.90;99.90;;;;;;5032643;28;20390;-74
2021/12/29 08:15:58;;;;;;;;;;;9.00;99.90;;;;;;5032713;28;20415;-75
2021/12/29 08:18:24;;;;;;;;;;;9.00;99.90;;;;;;5032507;28;19911;-75
2021/12/29 08:20:50;;;;;;;;;;;9.00;99.90;;;;;;5032765;28;19964;-74
2021/12/29 08:23:15;;;;;;;;;;;8.90;99.90;;;;;;5031421;28;19916;-75
2021/12/29 08:25:41;;;;;;;;;;;9.00;99.90;;;;;;5032508;28;19913;-75
2021/12/29 08:28:06;;;;;;;;;;;9.00;99.90;;;;;;5032202;28;19968;-74
2021/12/29 08:30:32;;;;;;;;;;;9.10;99.90;;;;;;5032428;28;20410;-75
2021/12/29 08:32:58;;;;;;;;;;;9.00;99.90;;;;;;5032576;28;19940;-75
2021/12/29 08:35:23;;;;;;;;;;;9.10;99.90;;;;;;5032321;28;19913;-75
2021/12/29 08:37:49;;;;;;;;;;;9.20;99.90;;;;;;5032248;28;20251;-75
2021/12/29 08:40:15;;;;;;;;;;;9.20;99.90;;;;;;5032190;28;19928;-76
2021/12/29 08:42:41;;;;;;;;;;;9.00;99.90;;;;;;5032330;28;19940;-74
2021/12/29 08:45:07;;;;;;;;;;;9.00;99.90;;;;;;5032728;28;20399;-74
2021/12/29 08:47:33;;;;;;;;;;;9.10;99.90;;;;;;5032150;28;19917;-74
2021/12/29 08:49:59;;;;;;;;;;;9.10;99.90;;;;;;5032204;28;19923;-75
2021/12/29 08:52:24;;;;;;;;;;;9.10;99.90;;;;;;5030933;28;20000;-75
2021/12/29 08:54:50;;;;;;;;;;;9.10;99.90;;;;;;5032140;28;20337;-74
2021/12/29 08:57:15;;;;;;;;;;;9.20;99.90;;;;;;5031765;28;19917;-74
2021/12/29 08:59:41;;;;;;;;;;;9.20;99.90;;;;;;5031978;28;19917;-75
2021/12/29 09:02:07;;;;;;;;;;;9.20;99.90;;;;;;5032043;28;19917;-74
2021/12/29 09:04:33;;;;;;;;;;;9.20;99.90;;;;;;5030993;28;19941;-75
2021/12/29 09:06:58;;;;;;;;;;;9.20;99.90;;;;;;5031919;28;20367;-75
2021/12/29 09:09:24;;;;;;;;;;;9.30;99.90;;;;;;5031947;28;19920;-74
2021/12/29 09:11:50;;;;;;;;;;;9.30;99.90;;;;;;5032393;28;19918;-74
2021/12/29 09:14:16;;;;;;;;;;;9.20;99.90;;;;;;5031938;28;19917;-74
2021/12/29 09:16:43;;;;;;;;;;;9.30;99.90;;;;;;5031897;28;19992;-76
2021/12/29 09:19:12;;;;;;;;;;;9.30;99.90;;;;;;5031904;28;19913;-74
2021/12/29 09:21:39;;;;;;;;;;;9.30;99.90;;;;;;5031337;28;19928;-74
2021/12/29 09:24:05;;;;;;;;;;;9.30;99.90;;;;;;5030904;28;19915;-75
2021/12/29 09:26:30;;;;;;;;;;;9.30;99.90;;;;;;5031867;28;19917;-75
2021/12/29 09:28:56;;;;;;;;;;;9.40;99.90;;;;;;5031839;28;19913;-74
2021/12/29 09:31:22;;;;;;;;;;;9.40;99.90;;;;;;5031327;28;19933;-75
2021/12/29 09:33:48;;;;;;;;;;;9.40;99.90;;;;;;5031550;28;19913;-75
2021/12/29 09:36:15;;;;;;;;;;;9.40;99.90;;;;;;5032273;28;19952;-75
2021/12/29 09:38:40;;;;;;;;;;;9.40;99.90;;;;;;5031028;28;19971;-75
2021/12/29 09:41:07;;;;;;;;;;;9.50;99.90;;;;;;5031893;28;19918;-74
2021/12/29 09:43:33;;;;;;;;;;;9.50;99.90;;;;;;5031660;28;20121;-74
2021/12/29 09:45:59;;;;;;;;;;;9.50;99.90;;;;;;5031764;28;19924;-74
2021/12/29 09:48:24;;;;;;;;;;;9.50;99.90;;;;;;5035901;28;20361;-74
2021/12/29 09:50:50;;;;;;;;;;;9.50;99.90;;;;;;5035797;28;20007;-75
2021/12/29 09:53:15;;;;;;;;;;;9.60;99.90;;;;;;5035612;28;19928;-75
2021/12/29 09:55:41;;;;;;;;;;;9.50;99.90;;;;;;5035288;28;20346;-74
2021/12/29 09:58:07;;;;;;;;;;;9.50;99.90;;;;;;5034257;28;19913;-74
2021/12/29 10:00:32;;;;;;;;;;;9.50;99.90;;;;;;5035311;28;19913;-75
2021/12/29 10:02:59;;;;;;;;;;;9.50;99.90;;;;;;5035624;28;20426;-75
2021/12/29 10:05:27;;;;;;;;;;;9.50;99.90;;;;;;5035239;28;19932;-74
2021/12/29 10:07:57;;;;;;;;;;;9.40;99.90;;;;;;5035162;28;20299;-75
2021/12/29 10:10:23;;;;;;;;;;;9.50;99.90;;;;;;5034985;28;19948;-75
2021/12/29 10:12:49;;;;;;;;;;;9.60;99.90;;;;;;5035332;28;19913;-75
2021/12/29 10:15:14;;;;;;;;;;;9.60;99.90;;;;;;5034422;28;19971;-75
2021/12/29 10:17:40;;;;;;;;;;;9.60;99.90;;;;;;5035009;28;19983;-75
2021/12/29 10:20:10;;;;;;;;;;;9.60;99.90;;;;;;5035082;28;20255;-74
2021/12/29 10:22:36;;;;;;;;;;;9.60;99.90;;;;;;5034714;28;19987;-75
2021/12/29 10:25:10;;;;;;;;;;;9.60;99.90;;;;;;5034789;28;20239;-75
2021/12/29 10:27:35;;;;;;;;;;;9.60;99.90;;;;;;5034881;28;19917;-74
2021/12/29 10:30:16;;;;;;;;;;;9.60;99.90;;;;;;5035170;28;20247;-75
2021/12/29 10:32:42;;;;;;;;;;;9.60;99.90;;;;;;5033302;28;19925;-74
2021/12/29 10:35:08;;;;;;;;;;;9.70;99.90;;;;;;5033648;28;19913;-75
2021/12/29 10:37:33;;;;;;;;;;;9.70;99.90;;;;;;5034380;28;19913;-75
2021/12/29 10:39:59;;;;;;;;;;;9.60;99.90;;;;;;5034421;28;19983;-73
2021/12/29 10:42:25;;;;;;;;;;;9.60;99.90;;;;;;5034520;28;20344;-75
2021/12/29 10:44:53;;;;;;;;;;;9.60;99.90;;;;;;5034923;28;19999;-74
2021/12/29 10:47:18;;;;;;;;;;;9.60;99.90;;;;;;5034573;28;19913;-75
2021/12/29 10:49:53;;;;;;;;;;;9.60;99.90;;;;;;5034474;28;19913;-74
2021/12/29 10:52:35;;;;;;;;;;;9.60;99.90;;;;;;5034273;28;19917;-75
2021/12/29 10:55:02;;;;;;;;;;;9.70;99.90;;;;;;5034344;28;20019;-73
2021/12/29 10:57:28;;;;;;;;;;;9.70;99.90;;;;;;5033545;28;19917;-74
2021/12/29 10:59:57;;;;;;;;;;;9.70;99.90;;;;;;5034555;28;20287;-75
2021/12/29 11:02:27;;;;;;;;;;;9.70;99.90;;;;;;5033995;28;19992;-75
2021/12/29 11:04:54;;;;;;;;;;;9.70;99.90;;;;;;5034210;28;19975;-75
2021/12/29 11:07:27;;;;;;;;;;;9.70;99.90;;;;;;5033971;28;19917;-74
2021/12/29 11:09:52;;;;;;;;;;;9.70;99.90;;;;;;5034016;28;19967;-76
2021/12/29 11:12:20;;;;;;;;;;;9.80;99.90;;;;;;5033178;28;19909;-74
2021/12/29 11:14:50;;;;;;;;;;;9.80;99.90;;;;;;5033293;28;19908;-74
2021/12/29 11:17:20;;;;;;;;;;;9.80;99.90;;;;;;5032925;28;19924;-75
2021/12/29 11:19:51;;;;;;;;;;;9.90;99.90;;;;;;5032680;28;19974;-75
2021/12/29 11:22:17;;;;;;;;;;;9.90;99.90;;;;;;5033196;28;19967;-74
2021/12/29 11:24:43;;;;;;;;;;;9.80;99.90;;;;;;5033735;28;19913;-74
2021/12/29 11:27:14;;;;;;;;;;;9.80;99.90;;;;;;5032867;28;20239;-75
2021/12/29 11:29:48;;;;;;;;;;;9.90;99.90;;;;;;5033456;28;19917;-75
2021/12/29 11:32:19;;;;;;;;;;;10.00;99.90;;;;;;5032572;28;19925;-74
2021/12/29 11:34:44;;;;;;;;;;;10.00;99.90;;;;;;5032410;28;20336;-74
2021/12/29 11:37:11;;;;;;;;;;;10.00;99.90;;;;;;5033554;28;19927;-74
2021/12/29 11:39:38;;;;;;;;;;;10.00;99.90;;;;;;5033720;28;19941;-75
2021/12/29 11:42:04;;;;;;;;;;;10.00;99.90;;;;;;5033677;28;19909;-75
2021/12/29 11:44:30;;;;;;;;;;;10.00;99.90;;;;;;5033241;28;20256;-75
2021/12/29 11:46:56;;;;;;;;;;;10.00;99.90;;;;;;5032212;28;19921;-74
2021/12/29 11:49:22;;;;;;;;;;;10.00;99.90;;;;;;5033173;28;19913;-75
2021/12/29 11:51:52;;;;;;;;;;;9.90;99.90;;;;;;5032130;28;19964;-74
2021/12/29 11:54:21;;;;;;;;;;;10.00;99.90;;;;;;5033008;28;20394;-74
2021/12/29 11:56:47;;;;;;;;;;;10.00;99.90;;;;;;5033508;28;19929;-75
2021/12/29 11:59:13;;;;;;;;;;;10.00;99.90;;;;;;5033065;28;19917;-74
2021/12/29 12:01:39;;;;;;;;;;;10.00;99.90;;;;;;5033167;28;19936;-75
2021/12/29 12:04:10;;;;;;;;;;;10.00;99.90;;;;;;5032853;28;20011;-74
2021/12/29 12:06:39;;;;;;;;;;;10.00;99.90;;;;;;5033169;28;20359;-73
2021/12/29 12:09:08;;;;;;;;;;;10.00;99.90;;;;;;5032802;28;19966;-74
2021/12/29 12:11:35;;;;;;;;;;;10.10;99.90;;;;;;5033071;28;19913;-74
2021/12/29 12:14:01;;;;;;;;;;;10.10;99.90;;;;;;5032917;28;19932;-73
2021/12/29 12:16:27;;;;;;;;;;;10.10;99.90;;;;;;5032879;28;19913;-74
2021/12/29 12:18:54;;;;;;;;;;;10.20;99.90;;;;;;5032546;28;19966;-74
2021/12/29 12:21:25;;;;;;;;;;;10.20;99.90;;;;;;5032049;28;19917;-74
2021/12/29 12:23:52;;;;;;;;;;;10.20;99.90;;;;;;5033128;28;19902;-74
2021/12/29 12:26:22;;;;;;;;;;;10.20;99.90;;;;;;5032546;28;19960;-75
2021/12/29 12:28:49;;;;;;;;;;;10.20;99.90;;;;;;5031669;28;19917;-74
2021/12/29 12:31:24;;;;;;;;;;;10.20;99.90;;;;;;5031289;28;20618;-73
2021/12/29 12:33:50;;;;;;;;;;;10.20;99.90;;;;;;5032575;28;19917;-73
2021/12/29 12:36:16;;;;;;;;;;;10.20;99.90;;;;;;5032922;28;20004;-74
2021/12/29 12:38:42;;;;;;;;;;;10.20;99.90;;;;;;5032062;28;20414;-74
2021/12/29 12:41:12;;;;;;;;;;;10.30;99.90;;;;;;5032164;28;19924;-74
2021/12/29 12:43:57;;;;;;;;;;;10.40;99.90;;;;;;5032066;28;20369;-73
2021/12/29 12:46:34;;;;;;;;;;;10.30;99.90;;;;;;5031814;28;19937;-74
2021/12/29 12:49:11;;;;;;;;;;;10.30;99.90;;;;;;5032109;28;19971;-73
2021/12/29 12:51:36;;;;;;;;;;;10.40;99.90;;;;;;5032264;28;20587;-74
2021/12/29 12:54:15;;;;;;;;;;;10.40;99.90;;;;;;5032343;28;20011;-74
2021/12/29 12:56:44;;;;;;;;;;;10.40;99.90;;;;;;5031910;28;19917;-73
2021/12/29 12:59:10;;;;;;;;;;;10.40;99.90;;;;;;5031160;28;20495;-72
2021/12/29 13:01:42;;;;;;;;;;;10.40;99.90;;;;;;5030723;28;19921;-75
2021/12/29 13:04:09;;;;;;;;;;;10.40;99.90;;;;;;5031911;28;19937;-74
2021/12/29 13:06:35;;;;;;;;;;;10.50;99.90;;;;;;5030946;28;20012;-73
2021/12/29 13:09:02;;;;;;;;;;;10.40;99.90;;;;;;5031437;28;20020;-74
2021/12/29 13:11:31;;;;;;;;;;;10.50;99.90;;;;;;5031680;28;19974;-75
2021/12/29 13:13:57;;;;;;;;;;;10.50;99.90;;;;;;5031807;28;19913;-75
2021/12/29 13:16:26;;;;;;;;;;;10.50;99.90;;;;;;5031791;28;20296;-74
2021/12/29 13:18:52;;;;;;;;;;;10.50;99.90;;;;;;5030542;28;20024;-74
2021/12/29 13:21:21;;;;;;;;;;;10.50;99.90;;;;;;5031462;28;19920;-73
2021/12/29 13:23:47;;;;;;;;;;;10.40;99.90;;;;;;5036405;28;20059;-73
2021/12/29 13:26:13;;;;;;;;;;;10.50;99.90;;;;;;5036084;28;19917;-74
2021/12/29 13:28:39;;;;;;;;;;;10.40;99.90;;;;;;5034831;28;20262;-73
2021/12/29 13:31:15;;;;;;;;;;;10.40;99.90;;;;;;5035720;28;19983;-74
2021/12/29 13:33:42;;;;;;;;;;;10.30;99.90;;;;;;5035763;28;19927;-74
2021/12/29 13:36:08;;;;;;;;;;;10.30;99.90;;;;;;5036032;28;19909;-75
2021/12/29 13:38:35;;;;;;;;;;;10.40;99.90;;;;;;5035565;28;19917;-73
2021/12/29 13:41:05;;;;;;;;;;;10.40;99.90;;;;;;5034596;28;20577;-73
2021/12/29 13:43:33;;;;;;;;;;;10.40;99.90;;;;;;5035529;28;19924;-74
2021/12/29 13:46:07;;;;;;;;;;;10.40;99.90;;;;;;5035440;28;19917;-74
2021/12/29 13:48:34;;;;;;;;;;;10.40;99.90;;;;;;5035477;28;19909;-73
2021/12/29 13:51:05;;;;;;;;;;;10.40;99.90;;;;;;5034812;28;20011;-72
2021/12/29 13:53:32;;;;;;;;;;;10.50;99.90;;;;;;5035343;28;20351;-75
2021/12/29 13:56:09;;;;;;;;;;;10.50;99.90;;;;;;5035927;28;20347;-73
2021/12/29 13:58:34;;;;;;;;;;;10.50;99.90;;;;;;5035348;28;20004;-73
2021/12/29 14:01:02;;;;;;;;;;;10.40;99.90;;;;;;5034056;28;20020;-74
2021/12/29 14:03:28;;;;;;;;;;;10.40;99.90;;;;;;5035260;28;20402;-73
2021/12/29 14:05:58;;;;;;;;;;;10.40;99.90;;;;;;5034777;28;19916;-75
2021/12/29 14:08:24;;;;;;;;;;;10.40;99.90;;;;;;5034927;28;19992;-73
2021/12/29 14:10:50;;;;;;;;;;;10.40;99.90;;;;;;5034412;28;20466;-74
2021/12/29 14:13:17;;;;;;;;;;;10.50;99.90;;;;;;5034139;28;20008;-73
2021/12/29 14:15:43;;;;;;;;;;;10.50;99.90;;;;;;5035237;28;19920;-73
2021/12/29 14:18:10;;;;;;;;;;;10.60;99.90;;;;;;5035504;28;19909;-73
2021/12/29 14:20:36;;;;;;;;;;;10.50;99.90;;;;;;5033563;28;20339;-73
2021/12/29 14:23:03;;;;;;;;;;;10.60;99.90;;;;;;5034824;28;19920;-73
2021/12/29 14:25:33;;;;;;;;;;;10.60;99.90;;;;;;5034901;28;19939;-74
2021/12/29 14:27:58;;;;;;;;;;;10.60;99.90;;;;;;5034701;28;19919;-73